Home > Products > Valid Products > TAF

000
FTUS41 KGYX 011120
TAFPWM
TAF
KPWM 011120Z 0112/0212 02006KT P6SM VCSH OVC015
     FM011400 02011KT 6SM -SHRA BR OVC015
     FM012000 04007KT P6SM SCT010 OVC025=



000
FTUS41 KGYX 011120
TAFCON
TAF
KCON 011120Z 0112/0212 36004KT P6SM -SHRA OVC025
     FM011400 03007KT 6SM -SHRA BR OVC025
     FM020000 01004KT P6SM SCT007 OVC015=



000
FTUS41 KGYX 011120
TAFAUG
TAF
KAUG 011120Z 0112/0212 01007KT P6SM OVC015
     FM011500 03010KT P6SM OVC035
     FM020300 02006KT P6SM OVC015=



000
FTUS41 KGYX 011120
TAFLEB
TAF
KLEB 011120Z 0112/0212 00000KT P6SM -SHRA OVC015
     FM011400 36006KT P6SM -SHRA OVC025
     FM012200 VRB03KT P6SM SCT007 OVC015=



000
FTUS41 KGYX 011120
TAFPSM
TAF
KPSM 011120Z 0112/0212 01006KT P6SM -SHRA OVC008
     FM011300 03010KT 6SM -SHRA BR OVC012
     FM020000 02007KT P6SM VCSH SCT007 OVC012=



000
FTUS41 KGYX 011103 AAA
TAFLEB
TAF AMD
KLEB 011103Z 0111/0206 00000KT P6SM -SHRA SCT007 OVC015
     FM011300 36006KT P6SM -SHRA OVC025
     FM012200 VRB03KT P6SM SCT007 OVC015=



000
FTUS41 KGYX 010908 CCA
TAFCON
TAF COR
KCON 010908Z 0109/0206 36004KT 6SM -SHRA BR SCT007 BKN015 OVC050
     FM011300 03007KT 6SM -SHRA BR OVC015
     FM020000 01004KT P6SM SCT007 OVC015=



000
FTUS41 KGYX 010907 RRA
TAFPWM
TAF
KPWM 010907Z 0109/0206 02006KT P6SM BKN015 OVC030
     FM011100 02006KT 6SM BR SCT007 OVC015
     FM011500 02011KT 6SM -SHRA BR OVC015
     FM012000 04007KT P6SM SCT010 OVC025=



000
FTUS41 KGYX 010907 RRA
TAFCON
TAF
KCON 010907Z 0109/0206 36004KT 6SM -SHRA BR SCT007 BKN025 OVC050
     FM011300 03007KT 6SM -SHRA BR OVC015
     FM020000 01004KT P6SM SCT007 OVC015=



000
FTUS41 KGYX 010907 RRA
TAFAUG
TAF
KAUG 010907Z 0109/0206 01007KT P6SM OVC025
     FM011500 03010KT P6SM OVC035
     FM020300 02006KT P6SM OVC015=



000
FTUS41 KGYX 010907 RRA
TAFPSM
TAF
KPSM 010907Z 0109/0206 36006KT P6SM -SHRA SCT007 OVC015
      TEMPO 0110/0112 BKN007 OVC015
     FM011300 03010KT 6SM -SHRA BR OVC012
     FM020000 02007KT P6SM VCSH SCT007 OVC012=



000
FTUS41 KGYX 010907 RRA
TAFLEB
TAF
KLEB 010907Z 0109/0206 00000KT P6SM -SHRA SCT007 OVC010
     FM011300 36006KT P6SM -SHRA OVC025
     FM012200 VRB03KT P6SM SCT007 OVC015=



000
FTUS41 KGYX 010705 AAA
TAFCON
TAF AMD
KCON 010705Z 0107/0206 36004KT 6SM -SHRA BR SCT007 BKN025 OVC050
     FM011300 03007KT 6SM -SHRA BR OVC015
     FM020000 01004KT P6SM SCT007 OVC015=



000
FTUS41 KGYX 010704 AAA
TAFAUG
TAF AMD
KAUG 010704Z 0107/0206 35004KT P6SM OVC025
     FM011500 03010KT P6SM OVC035=



000
FTUS41 KGYX 010703 AAA
TAFPSM
TAF AMD
KPSM 010703Z 0107/0206 03006KT P6SM -SHRA OVC015
     FM010900 VRB04KT 6SM -SHRA BR SCT007 OVC015
     FM011100 03010KT 6SM -SHRA BR OVC012
     FM020000 02007KT P6SM VCSH SCT007 OVC012=



000
FTUS41 KGYX 010701 AAA
TAFPWM
TAF AMD
KPWM 010701Z 0107/0206 02006KT P6SM BKN015 OVC030
     FM010900 02006KT 6SM BR SCT007 OVC015
     FM011200 02011KT 6SM -SHRA BR OVC015
     FM012000 04007KT P6SM SCT010 OVC025=



000
FTUS41 KGYX 010523
TAFLEB
TAF
KLEB 010523Z 0106/0206 00000KT P6SM OVC010
     FM010800 00000KT 6SM -SHRA BR SCT007 OVC010
     FM011300 36006KT P6SM -SHRA OVC025
     FM012200 VRB03KT P6SM SCT007 OVC015=



000
FTUS41 KGYX 010523
TAFCON
TAF
KCON 010523Z 0106/0206 36004KT 6SM -SHRA BKN015 OVC050
     FM010800 VRB03KT 3SM -SHRA BR OVC007
     FM011300 03007KT 5SM -SHRA BR OVC015
     FM020000 01004KT P6SM SCT007 OVC015=



000
FTUS41 KGYX 010523
TAFPWM
TAF
KPWM 010523Z 0106/0206 02006KT P6SM OVC015
     FM010700 02006KT 1 1/2SM BR OVC007
     FM011200 02011KT 6SM -SHRA BR OVC015
     FM012000 04007KT P6SM SCT010 OVC025=



000
FTUS41 KGYX 010523
TAFAUG
TAF
KAUG 010523Z 0106/0206 35004KT P6SM OVC015
     FM010800 03004KT 3SM BR SCT005 OVC015
     FM011500 03010KT P6SM OVC025=



000
FTUS41 KGYX 010523
TAFPSM
TAF
KPSM 010523Z 0106/0206 03006KT P6SM -SHRA OVC015
     FM010700 VRB04KT 4SM -SHRA BR OVC007
     FM011100 03010KT 5SM -SHRA BR OVC012
     FM020000 02007KT P6SM VCSH SCT007 OVC012=



000
FTUS41 KGYX 010406 AAA
TAFPWM
TAF AMD
KPWM 010406Z 0104/0124 02006KT P6SM OVC015
     FM010700 01003KT 1 1/2SM BR OVC003
     FM011200 03012KT 5SM -SHRA BR OVC015
      TEMPO 0120/0124 P6SM NSW OVC025=



000
FTUS41 KGYX 010203 AAA
TAFLEB
TAF AMD
KLEB 010203Z 0102/0124 VRB03KT P6SM OVC013
     FM010900 00000KT 3SM BR BKN007
     FM011300 36006KT P6SM -SHRA OVC025
      TEMPO 0120/0124 P6SM NSW OVC025=



000
FTUS41 KGYX 010202 AAA
TAFPSM
TAF AMD
KPSM 010202Z 0102/0124 02005KT P6SM OVC018
     FM010600 VRB05KT 4SM -SHRA BR OVC005
     FM011100 03012KT 5SM -SHRA BR OVC015
      TEMPO 0122/0124 P6SM NSW OVC025=



000
FTUS41 KGYX 010202 AAA
TAFCON
TAF AMD
KCON 010202Z 0102/0124 07004KT P6SM OVC015
     FM010900 VRB03KT 3SM BR OVC007
     FM011300 03007KT 5SM -SHRA BR OVC015
      TEMPO 0122/0124 P6SM NSW OVC025=



000
FTUS41 KGYX 010201 AAA
TAFAUG
TAF AMD
KAUG 010201Z 0102/0124 35005KT P6SM OVC015
     FM010600 03004KT 2SM BR OVC005
     FM011500 03012KT P6SM OVC025=



000
FTUS41 KGYX 302320
TAFPWM
TAF
KPWM 302320Z 0100/0124 02006KT P6SM OVC025
     FM010300 04003KT 3SM BR OVC005
     FM010600 01003KT 1 1/2SM BR OVC003
     FM011200 03012KT 5SM -SHRA BR OVC015
      TEMPO 0120/0124 P6SM NSW OVC025=



000
FTUS41 KGYX 302320
TAFPSM
TAF
KPSM 302320Z 0100/0124 02005KT P6SM OVC007
     FM010300 VRB05KT 2SM BR OVC005
     FM011100 03012KT 5SM -SHRA BR OVC015
      TEMPO 0122/0124 P6SM NSW OVC025=



000
FTUS41 KGYX 302320
TAFCON
TAF
KCON 302320Z 0100/0124 07004KT P6SM OVC015
     FM010200 03002KT 6SM BR OVC009
     FM010900 VRB03KT 3SM BR OVC003
     FM011300 03007KT 5SM -SHRA BR OVC015
      TEMPO 0122/0124 P6SM NSW OVC025=



000
FTUS41 KGYX 302320
TAFAUG
TAF
KAUG 302320Z 0100/0124 02004KT P6SM OVC035
     FM010400 06003KT 6SM BR OVC015
     FM010600 03004KT 2SM BR OVC005
     FM011500 03012KT P6SM OVC025=



000
FTUS41 KGYX 302320
TAFLEB
TAF
KLEB 302320Z 0100/0124 VRB03KT P6SM OVC040
     FM010300 00000KT 3SM BR OVC012
     FM010900 00000KT 1SM BR BKN003
     FM011300 36006KT P6SM -SHRA OVC025
      TEMPO 0120/0124 P6SM NSW OVC025=



000
FTUS41 KGYX 302011 AAA
TAFAUG
TAF AMD
KAUG 302011Z 3020/0118 02009KT P6SM OVC035
     FM010000 06003KT 6SM BR OVC015
     FM010200 03004KT 2SM BR OVC005
     FM011500 03012KT P6SM OVC025=



000
FTUS41 KGYX 301725
TAFPSM
TAF
KPSM 301725Z 3018/0118 01007KT P6SM OVC007
     FM010000 VRB05KT 2SM BR OVC005
     FM011300 03012KT 5SM -SHRA BR OVC015=



000
FTUS41 KGYX 301725
TAFLEB
TAF
KLEB 301725Z 3018/0118 VRB03KT P6SM OVC015
     FM010300 00000KT 3SM BR OVC012
     FM010900 00000KT 1SM BR BKN003
     FM011300 36006KT P6SM -SHRA OVC025=



000
FTUS41 KGYX 301725
TAFPWM
TAF
KPWM 301725Z 3018/0118 02006KT P6SM OVC012
     FM010000 04003KT 3SM BR OVC005
     FM010200 01003KT 1 1/2SM BR OVC003
     FM011500 03012KT 5SM -SHRA BR OVC015=



000
FTUS41 KGYX 301725
TAFCON
TAF
KCON 301725Z 3018/0118 VRB03KT P6SM OVC015
     FM010100 03002KT 6SM BR OVC009
     FM010900 VRB03KT 3SM BR OVC003
     FM011300 03007KT 5SM -SHRA BR OVC015=



000
FTUS41 KGYX 301725
TAFAUG
TAF
KAUG 301725Z 3018/0118 02009KT P6SM OVC015
     FM010000 06003KT 6SM BR OVC007
     FM010200 03004KT 2SM BR OVC005
     FM011500 03012KT P6SM OVC025=



000
FTUS41 KGYX 301628 AAB
TAFAUG
TAF AMD
KAUG 301628Z 3016/0112 36009KT P6SM OVC010
     FM010000 06003KT 6SM BR OVC007
     FM010200 03004KT 1 1/2SM BR OVC002=



000
FTUS41 KGYX 301602 AAA
TAFPSM
TAF AMD
KPSM 301602Z 3016/0112 01007KT P6SM OVC005
     FM010000 VRB05KT 2SM BR OVC005=



000
FTUS41 KGYX 301409 AAA
TAFAUG
TAF AMD
KAUG 301409Z 3014/0112 03009KT P6SM OVC005
     FM010000 06003KT 6SM BR OVC007
     FM010200 03004KT 1 1/2SM BR OVC002=



000
FTUS41 KGYX 301309 AAB
TAFLEB
TAF AMD
KLEB 301309Z 3013/0112 VRB03KT P6SM OVC012
     FM301600 12004KT P6SM BKN035
     FM010300 00000KT 4SM BR OVC012
     FM010900 00000KT 1SM BR BKN003=



000
FTUS41 KGYX 301202 AAA
TAFLEB
TAF AMD
KLEB 301202Z 3012/0112 VRB03KT P6SM OVC010
     FM301600 12004KT P6SM BKN035
     FM010300 00000KT 4SM BR OVC012
     FM010900 00000KT 1SM BR BKN003=



000
FTUS41 KGYX 301120
TAFLEB
TAF
KLEB 301120Z 3012/0112 12002KT P6SM OVC012
     FM301300 12004KT P6SM OVC015
     FM301600 12004KT P6SM BKN035
     FM010300 00000KT 4SM BR OVC012
     FM010900 00000KT 1SM BR BKN003=



000
FTUS41 KGYX 301120
TAFPWM
TAF
KPWM 301120Z 3012/0112 03004KT 5SM -DZ BR OVC005
     FM301300 05006KT P6SM OVC008
     FM301500 05006KT P6SM OVC015
     FM010000 04003KT 3SM BR OVC005
     FM010200 01003KT 1 1/2SM BR OVC003=



000
FTUS41 KGYX 301120
TAFPSM
TAF
KPSM 301120Z 3012/0112 04007KT 6SM -DZ BR OVC007
     FM301400 04007KT P6SM OVC015
     FM010000 VRB05KT 2SM BR OVC006=



000
FTUS41 KGYX 301120
TAFCON
TAF
KCON 301120Z 3012/0112 06004KT P6SM OVC009
     FM301400 08004KT P6SM OVC015
     FM301800 11003KT P6SM OVC025
     FM010100 03002KT 6SM BR OVC009
     FM010900 VRB03KT 3SM BR OVC003=



000
FTUS41 KGYX 301120
TAFAUG
TAF
KAUG 301120Z 3012/0112 03004KT 6SM -DZ BR OVC004
     FM301400 01004KT P6SM OVC012
     FM010000 06003KT 6SM BR OVC007
     FM010200 03004KT 1 1/2SM BR OVC002=



000
FTUS41 KGYX 301023 AAA
TAFCON
TAF AMD
KCON 301023Z 3010/0106 00000KT 6SM BR OVC009
     FM301300 09003KT P6SM OVC015
     FM301900 11003KT P6SM OVC050
     FM010000 03002KT 6SM BR OVC015=



000
FTUS41 KGYX 301023 AAA
TAFLEB
TAF AMD
KLEB 301023Z 3010/0106 12002KT 6SM BR OVC008
     FM301300 16004KT P6SM OVC015
     FM301600 12004KT P6SM BKN035
     FM010300 00000KT 4SM BR OVC012=



000
FTUS41 KGYX 300825 AAA
TAFPWM
TAF AMD
KPWM 300825Z 3008/0106 03004KT 5SM -DZ BR OVC007
     FM301300 05006KT 6SM -DZ BR OVC007
     FM301500 09006KT P6SM OVC015
     FM010000 04003KT 3SM BR OVC005
     FM010200 01003KT 1 1/2SM BR OVC003=



000
FTUS41 KGYX 300520
TAFCON
TAF
KCON 300520Z 3006/0106 VRB03KT 6SM BR OVC013
     FM300800 00000KT 1 1/2SM BR OVC005
     FM301300 00000KT P6SM OVC007
     FM301500 09003KT P6SM OVC015
     FM301900 11003KT P6SM OVC050
     FM010000 03002KT 6SM BR OVC015=



000
FTUS41 KGYX 300520
TAFPSM
TAF
KPSM 300520Z 3006/0106 04006KT 2SM -DZ BR OVC003
     FM301300 03005KT 4SM BR OVC004
     FM301400 04006KT P6SM OVC015
     FM010000 VRB05KT 1 1/2SM BR OVC003=



000
FTUS41 KGYX 300520
TAFLEB
TAF
KLEB 300520Z 3006/0106 00000KT P6SM OVC010
     FM300900 12002KT 4SM BR OVC003
     FM301300 16004KT P6SM OVC015
     FM301600 12004KT P6SM BKN035
     FM010300 00000KT 4SM BR OVC012=



000
FTUS41 KGYX 300520
TAFAUG
TAF
KAUG 300520Z 3006/0106 04006KT 6SM BR OVC008
     FM300800 03004KT 3SM BR OVC003
     FM301400 01004KT P6SM OVC012
     FM010000 06003KT 6SM BR OVC005
     FM010200 03004KT 1 1/2SM BR OVC002=



000
FTUS41 KGYX 300520
TAFPWM
TAF
KPWM 300520Z 3006/0106 04005KT 6SM BR OVC010
     FM300800 03004KT 3SM -DZ BR OVC004
     FM301300 05006KT 6SM -DZ BR OVC007
     FM301500 09006KT P6SM OVC015
     FM010000 04003KT 3SM BR OVC005
     FM010200 01003KT 1 1/2SM BR OVC003=



000
FTUS41 KGYX 300146 AAA
TAFLEB
TAF AMD
KLEB 300146Z 3002/3024 13005KT P6SM BKN014 OVC030
     FM300500 00000KT 1 1/2SM BR OVC003
     FM300900 01005KT 1/2SM FG OVC002
     FM301500 VRB03KT P6SM OVC015=



000
FTUS41 KGYX 292326
TAFPWM
TAF
KPWM 292326Z 3000/3024 09009KT 6SM BR OVC015
     FM300200 04008KT 1 1/2SM -DZ BR OVC003
     FM301000 01005KT 1/2SM FG OVC003
     FM301500 02010KT P6SM OVC015=



000
FTUS41 KGYX 292326
TAFLEB
TAF
KLEB 292326Z 3000/3024 00000KT P6SM SCT035
     FM300500 00000KT 1 1/2SM BR OVC003
     FM300900 01005KT 1/2SM FG OVC002
     FM301500 VRB03KT P6SM OVC015=



000
FTUS41 KGYX 292326
TAFPSM
TAF
KPSM 292326Z 3000/3024 04011KT 3SM -DZ BR OVC006
     FM300300 04008KT 1SM -DZ BR OVC003
     FM300900 01005KT 1/2SM FG OVC003
     FM301500 02010KT P6SM OVC015=



000
FTUS41 KGYX 292326
TAFAUG
TAF
KAUG 292326Z 3000/3024 09008KT P6SM OVC015
     FM300300 04010KT 1 1/2SM -DZ BR OVC002
     FM301500 01007KT P6SM OVC015=



000
FTUS41 KGYX 292326
TAFCON
TAF
KCON 292326Z 3000/3024 07007KT P6SM OVC007
     FM300900 01005KT 1/2SM FG OVC003
     FM301500 04005KT P6SM OVC015=



000
FTUS41 KGYX 291930 AAB
TAFPSM
TAF AMD
KPSM 291930Z 2920/3018 06013KT 3SM BR OVC005
     FM300000 05012KT 6SM BR OVC007
     FM300200 04008KT 2SM -DZ BR OVC003
     FM301500 02010KT P6SM OVC015=



000
FTUS41 KGYX 291852 AAA
TAFPSM
TAF AMD
KPSM 291852Z 2919/3018 06010G20KT P6SM BKN015
     FM300000 05012KT 6SM BR OVC007
     FM300200 04008KT 2SM -DZ BR OVC003
     FM301500 02010KT P6SM OVC015=



000
FTUS41 KGYX 291733 AAA
TAFPWM
TAF AMD
KPWM 291733Z 2918/3018 08014G22KT P6SM SCT007 BKN025
      TEMPO 2918/2919 BKN007
     FM292000 07014G21KT P6SM OVC015
     FM292200 06013KT 6SM BR OVC007
     FM300100 04008KT 1 1/2SM -DZ BR OVC003
     FM301500 02010KT P6SM OVC015=



000
FTUS41 KGYX 291727
TAFPSM
TAF
KPSM 291727Z 2918/3018 06010KT P6SM SCT025
     FM292100 08012G20KT P6SM OVC025
     FM300000 05012KT 6SM BR OVC007
     FM300200 04008KT 2SM -DZ BR OVC003
     FM301500 02010KT P6SM OVC015=



000
FTUS41 KGYX 291727
TAFLEB
TAF
KLEB 291727Z 2918/3018 36006KT P6SM BKN250
     FM292000 08005KT P6SM OVC100
     FM300000 07004KT P6SM OVC025
     FM300500 00000KT 1 1/2SM BR OVC003
     FM301500 VRB03KT P6SM OVC015=



000
FTUS41 KGYX 291727
TAFPWM
TAF
KPWM 291727Z 2918/3018 06012G20KT P6SM SCT020
     FM292000 07014G21KT P6SM OVC015
     FM292200 06013KT 6SM BR OVC007
     FM300100 04008KT 1 1/2SM -DZ BR OVC003
     FM301500 02010KT P6SM OVC015=



000
FTUS41 KGYX 291727
TAFAUG
TAF
KAUG 291727Z 2918/3018 04011KT P6SM OVC025
     FM291900 05013G19KT P6SM OVC015
     FM292200 04013G19KT 6SM BR OVC007
     FM300100 04010KT 1 1/2SM -DZ BR OVC002
     FM301500 01007KT P6SM OVC015=



000
FTUS41 KGYX 291727
TAFCON
TAF
KCON 291727Z 2918/3018 12007KT P6SM SCT025
     FM292100 09012KT P6SM BKN025
     FM300000 06004KT 6SM BR SCT007 OVC012
     FM301500 04005KT P6SM OVC015=



000
FTUS41 KGYX 291459 AAC
TAFLEB
TAF AMD
KLEB 291459Z 2915/3012 36006KT P6SM BKN250
     FM292000 08005KT P6SM OVC100
     FM300000 07004KT P6SM OVC025
     FM300500 00000KT 1 1/2SM BR OVC003=



000
FTUS41 KGYX 291409 AAB
TAFLEB
TAF AMD
KLEB 291409Z 2914/3012 VRB03KT 5SM BR BKN001
     FM291500 02006KT P6SM BKN250
     FM292000 08005KT P6SM OVC100
     FM300000 07004KT P6SM OVC025
     FM300500 00000KT 1 1/2SM BR OVC003=



000
FTUS41 KGYX 291301 AAA
TAFLEB
TAF AMD
KLEB 291301Z 2913/3012 00000KT 1/4SM FG OVC001
     FM291400 00000KT 2SM BR SCT002 BKN250
     FM291430 36005KT P6SM BKN250
     FM292000 08005KT P6SM OVC100
     FM300000 07004KT P6SM OVC025
     FM300500 00000KT 1 1/2SM BR OVC003=



000
FTUS41 KGYX 291120
TAFPSM
TAF
KPSM 291120Z 2912/3012 01005KT P6SM BKN250
     FM291700 07010KT P6SM OVC250
     FM292100 08012G20KT P6SM OVC025
     FM300000 05012KT 6SM BR OVC007
     FM300200 04008KT 2SM -DZ BR OVC003=



000
FTUS41 KGYX 291120
TAFAUG
TAF
KAUG 291120Z 2912/3012 02007KT P6SM BKN250
     FM291600 04011KT P6SM OVC050
     FM291900 05013G19KT P6SM OVC015
     FM292200 04013G19KT 6SM BR OVC007
     FM300100 04010KT 1 1/2SM -DZ BR OVC002=



000
FTUS41 KGYX 291120
TAFLEB
TAF
KLEB 291120Z 2912/3012 00000KT 1/2SM FG OVC001
     FM291300 00000KT 2SM BR SCT002 BKN250
     FM291400 36005KT P6SM BKN250
     FM292000 08005KT P6SM OVC100
     FM300000 07004KT P6SM OVC025
     FM300500 00000KT 1 1/2SM BR OVC003=



000
FTUS41 KGYX 291120
TAFCON
TAF
KCON 291120Z 2912/3012 03004KT P6SM BKN250
     FM291700 07005KT P6SM BKN250
     FM292100 09012KT P6SM OVC050
     FM300000 06004KT P6SM SCT007 OVC012=



000
FTUS41 KGYX 291120
TAFPWM
TAF
KPWM 291120Z 2912/3012 33005KT P6SM BKN250
     FM291400 02006KT P6SM BKN250
     FM291800 07014G21KT P6SM OVC050
     FM292000 07014G21KT P6SM OVC015
     FM292200 06013KT 6SM BR OVC007
     FM300100 04008KT 1 1/2SM -DZ BR OVC003=



000
FTUS41 KGYX 290531
TAFLEB
TAF
KLEB 290531Z 2906/3006 00000KT 1SM BR OVC250
     FM290900 00000KT 1/2SM FG OVC001
     FM291300 00000KT 4SM BR SCT002 BKN250
     FM291400 36005KT P6SM BKN250
     FM292000 08005KT P6SM OVC100
     FM300000 07004KT P6SM OVC025
     FM300500 00000KT 1 1/2SM BR OVC003=



000
FTUS41 KGYX 290531
TAFPSM
TAF
KPSM 290531Z 2906/3006 28003KT P6SM BKN250
     FM291200 02004KT P6SM BKN250
     FM291700 09010KT P6SM OVC250
     FM292100 08012G20KT P6SM OVC025
     FM300000 05012KT 6SM BR OVC007
     FM300200 04008KT 2SM -DZ BR OVC003=



000
FTUS41 KGYX 290531
TAFCON
TAF
KCON 290531Z 2906/3006 00000KT 6SM BR BKN250
     FM290800 00000KT 1SM BR BKN250
      TEMPO 2909/2912 1/2SM FG BKN002
     FM291300 03004KT P6SM BKN250
     FM291700 07005KT P6SM BKN250
     FM292100 09012KT P6SM OVC050
     FM300000 06004KT P6SM SCT007 OVC012=



000
FTUS41 KGYX 290531
TAFAUG
TAF
KAUG 290531Z 2906/3006 VRB03KT P6SM OVC250
     FM291200 36007KT P6SM BKN250
     FM291600 04011KT P6SM OVC050
     FM291900 05013G19KT P6SM OVC015
     FM292200 04013G19KT 6SM BR OVC007
     FM300100 04010KT 1 1/2SM -DZ BR OVC002=



000
FTUS41 KGYX 290531
TAFPWM
TAF
KPWM 290531Z 2906/3006 VRB03KT P6SM BKN250
     FM291200 36006KT P6SM BKN250
     FM291400 05006KT P6SM BKN250
     FM291800 07014G21KT P6SM OVC050
     FM292000 07014G21KT P6SM OVC015
     FM292200 06013KT 6SM BR OVC007
     FM300100 04008KT 1 1/2SM -DZ BR OVC003=



000
FTUS41 KGYX 282320
TAFPWM
TAF
KPWM 282320Z 2900/2924 VRB03KT P6SM SKC
     FM291400 05008KT P6SM SCT030 BKN070
     FM291800 07012KT P6SM -SHRA OVC015=



000
FTUS41 KGYX 282320
TAFAUG
TAF
KAUG 282320Z 2900/2924 VRB03KT P6SM SKC
     FM290900 VRB03KT 4SM BR SKC
     FM291200 02009KT P6SM BKN010
     FM291800 05012KT P6SM -SHRA OVC015=



000
FTUS41 KGYX 282320
TAFLEB
TAF
KLEB 282320Z 2900/2924 00000KT P6SM SKC
     FM290600 00000KT 1/2SM FG VV001
     FM291400 VRB04KT P6SM SCT030 BKN060 PROB30 2921/2924 P6SM -RA
      OVC040=



000
FTUS41 KGYX 282320
TAFCON
TAF
KCON 282320Z 2900/2924 00000KT P6SM SKC
     FM290900 00000KT 1/2SM FG VV001
     FM291300 VRB03KT P6SM SCT030 BKN060
     FM291800 07007KT P6SM OVC050 PROB30 2921/2924 P6SM -RA OVC040=



000
FTUS41 KGYX 282320
TAFPSM
TAF
KPSM 282320Z 2900/2924 VRB03KT P6SM SCT250
     FM291500 04006KT P6SM BKN250
     FM291800 07010KT P6SM SCT025 BKN050
     FM292100 05011KT P6SM -SHRA OVC025=



000
FTUS41 KGYX 281720
TAFPWM
TAF
KPWM 281720Z 2818/2918 19007KT P6SM SKC
     FM282300 VRB03KT P6SM SKC
     FM291400 05008KT P6SM SCT030 BKN070=



000
FTUS41 KGYX 281720
TAFLEB
TAF
KLEB 281720Z 2818/2918 VRB03KT P6SM SCT250
     FM290000 00000KT P6SM SKC
     FM290600 00000KT 1/4SM FG VV001
     FM291600 VRB03KT P6SM SCT030 BKN060=



000
FTUS41 KGYX 281720
TAFPSM
TAF
KPSM 281720Z 2818/2918 15007KT P6SM SCT250
     FM282300 VRB03KT P6SM SKC
     FM291400 06008KT P6SM SCT030 BKN080=



000
FTUS41 KGYX 281720
TAFAUG
TAF
KAUG 281720Z 2818/2918 22005KT P6SM SKC
     FM282300 VRB03KT P6SM SKC
     FM291400 03012KT P6SM BKN025 OVC060=



000
FTUS41 KGYX 281720
TAFCON
TAF
KCON 281720Z 2818/2918 VRB04KT P6SM SCT250
     FM290000 00000KT P6SM SKC
     FM290800 00000KT 1/4SM FG VV001
     FM291400 VRB03KT P6SM SCT030 BKN070=



    US Dept of Commerce
    National Oceanic and Atmospheric Administration
    National Weather Service
    1325 East West Highway
    Silver Spring, MD 20910
    Page Author: NWS Internet Services Team
Disclaimer
Information Quality
Credits
Glossary
Privacy Policy
Freedom of Information Act (FOIA)
About Us
Career Opportunities